createdAt,value
2022-08-26T00:01:24.297Z,0
2022-08-26T00:03:24.764Z,0
2022-08-26T00:05:26.388Z,0
2022-08-26T00:07:27.899Z,0
2022-08-26T00:09:28.919Z,0
2022-08-26T00:11:30.132Z,0
2022-08-26T00:13:31.153Z,0
2022-08-26T00:15:32.670Z,0
2022-08-26T00:17:33.953Z,0
2022-08-26T00:19:35.464Z,0
2022-08-26T00:23:38.806Z,0
2022-08-26T00:25:42.529Z,0
2022-08-26T00:27:42.293Z,0
2022-08-26T00:29:43.199Z,0
2022-08-26T00:31:45.216Z,0
2022-08-26T00:33:45.763Z,0
2022-08-26T00:35:47.374Z,0
2022-08-26T00:37:48.369Z,0
2022-08-26T00:39:50.125Z,0
2022-08-26T00:41:51.270Z,0
2022-08-26T00:43:52.373Z,0
2022-08-26T00:45:53.649Z,0
2022-08-26T00:47:54.864Z,0
2022-08-26T00:49:56.548Z,0
2022-08-26T00:51:57.819Z,0
2022-08-26T00:53:59.136Z,0
2022-08-26T00:56:00.440Z,0
2022-08-26T00:58:01.723Z,0
2022-08-26T01:00:03.384Z,0
2022-08-26T01:02:04.764Z,0
2022-08-26T01:04:06.370Z,0
2022-08-26T01:06:12.418Z,0
2022-08-26T01:08:09.469Z,0
2022-08-26T01:12:12.254Z,0
2022-08-26T01:14:13.683Z,0
2022-08-26T01:16:15.171Z,0
2022-08-26T01:18:16.656Z,0
2022-08-26T01:20:18.246Z,0
2022-08-26T01:22:20.002Z,0
2022-08-26T01:24:21.083Z,0
2022-08-26T01:26:22.041Z,0
2022-08-26T01:28:23.017Z,0
2022-08-26T01:30:24.268Z,0
2022-08-26T01:32:25.734Z,0
2022-08-26T01:34:26.762Z,0
2022-08-26T01:36:28.467Z,0
2022-08-26T01:38:30.808Z,0
2022-08-26T01:40:31.213Z,0
2022-08-26T01:42:32.776Z,0
2022-08-26T01:44:34.189Z,0
2022-08-26T01:46:35.807Z,0
2022-08-26T01:48:37.620Z,0
2022-08-26T01:50:39.101Z,0
2022-08-26T01:54:42.274Z,0
2022-08-26T01:56:43.840Z,0
2022-08-26T01:58:45.074Z,0
2022-08-26T02:00:47.020Z,0
2022-08-26T02:02:48.371Z,0
2022-08-26T02:04:49.903Z,0
2022-08-26T02:06:50.933Z,0
2022-08-26T02:08:52.792Z,0
2022-08-26T02:10:54.944Z,0
2022-08-26T02:12:56.185Z,0
2022-08-26T02:14:57.143Z,0
2022-08-26T02:16:58.072Z,0
2022-08-26T02:18:59.628Z,0
2022-08-26T02:19:43.366Z,0
2022-08-26T02:21:44.489Z,0
2022-08-26T02:23:45.750Z,0
2022-08-26T02:25:47.156Z,0
2022-08-26T02:27:48.529Z,0
2022-08-26T02:31:51.231Z,0
2022-08-26T02:33:53.074Z,0
2022-08-26T02:35:54.102Z,0
2022-08-26T02:37:55.007Z,0
2022-08-26T02:41:58.256Z,0
2022-08-26T02:44:00.053Z,0
2022-08-26T02:48:02.221Z,0
2022-08-26T02:50:04.086Z,0
2022-08-26T02:52:05.249Z,0
2022-08-26T02:54:06.768Z,0
2022-08-26T02:56:07.942Z,0
2022-08-26T02:58:09.158Z,0
2022-08-26T03:00:10.614Z,0
2022-08-26T03:02:12.286Z,0
2022-08-26T03:04:13.078Z,0
2022-08-26T03:06:14.959Z,0
2022-08-26T03:08:16.192Z,0
2022-08-26T03:12:19.218Z,0
2022-08-26T03:14:20.409Z,0
2022-08-26T03:16:21.714Z,0
2022-08-26T03:18:23.478Z,0
2022-08-26T03:20:25.187Z,0
2022-08-26T03:22:27.180Z,0
2022-08-26T03:24:28.113Z,0
2022-08-26T03:26:29.396Z,0
2022-08-26T03:28:30.682Z,0
2022-08-26T03:32:33.353Z,0
2022-08-26T03:34:34.929Z,0
2022-08-26T03:36:35.970Z,0
2022-08-26T03:38:37.698Z,0
2022-08-26T03:40:38.819Z,0
2022-08-26T03:42:39.982Z,0
2022-08-26T03:44:42.053Z,0
2022-08-26T03:46:42.640Z,0
2022-08-26T03:48:43.491Z,0
2022-08-26T03:50:44.967Z,0
2022-08-26T03:52:46.298Z,0
2022-08-26T03:54:47.921Z,0
2022-08-26T03:56:49.052Z,0
2022-08-26T03:58:50.473Z,0
2022-08-26T04:00:55.466Z,0
2022-08-26T04:02:53.197Z,0
2022-08-26T04:04:54.614Z,0
2022-08-26T04:06:55.781Z,0
2022-08-26T04:08:57.625Z,0
2022-08-26T04:13:00.093Z,0
2022-08-26T04:15:01.100Z,0
2022-08-26T04:17:02.475Z,0
2022-08-26T04:19:04.095Z,0
2022-08-26T04:21:13.455Z,0
2022-08-26T04:23:06.562Z,0
2022-08-26T04:25:07.703Z,0
2022-08-26T04:27:08.949Z,0
2022-08-26T04:29:10.299Z,0
2022-08-26T04:31:12.301Z,0
2022-08-26T04:35:15.023Z,0
2022-08-26T04:37:16.041Z,0
2022-08-26T04:39:18.612Z,0
2022-08-26T04:41:18.221Z,0
2022-08-26T04:43:19.376Z,0
2022-08-26T04:45:22.701Z,0
2022-08-26T04:47:21.727Z,0
2022-08-26T04:49:23.375Z,0
2022-08-26T04:51:25.007Z,0
2022-08-26T04:53:26.101Z,0
2022-08-26T04:55:38.820Z,0
2022-08-26T04:57:28.469Z,0
2022-08-26T04:59:29.487Z,0
2022-08-26T05:01:31.334Z,0
2022-08-26T05:03:32.408Z,0
2022-08-26T05:05:33.974Z,0
2022-08-26T05:07:35.535Z,0
2022-08-26T05:09:37.364Z,0
2022-08-26T05:11:38.288Z,0
2022-08-26T05:13:39.243Z,0
2022-08-26T05:15:40.899Z,0
2022-08-26T05:17:42.432Z,0
2022-08-26T05:21:44.591Z,0
2022-08-26T05:23:53.922Z,0
2022-08-26T05:25:47.002Z,0
2022-08-26T05:27:48.422Z,0
2022-08-26T05:29:54.400Z,0
2022-08-26T05:31:50.412Z,0
2022-08-26T05:33:51.634Z,0
2022-08-26T05:35:52.726Z,0
2022-08-26T05:37:54.212Z,0
2022-08-26T05:39:55.838Z,0
2022-08-26T05:41:57.177Z,0
2022-08-26T05:43:58.616Z,0
2022-08-26T05:46:00.206Z,0
2022-08-26T05:48:01.153Z,0
2022-08-26T05:50:02.920Z,0
2022-08-26T05:54:05.737Z,0
2022-08-26T05:56:07.144Z,0
2022-08-26T05:58:08.213Z,0
2022-08-26T06:02:10.318Z,0
2022-08-26T06:04:11.274Z,0
2022-08-26T06:06:12.698Z,0
2022-08-26T06:08:14.039Z,0
2022-08-26T06:10:31.397Z,0
2022-08-26T06:12:16.618Z,0
2022-08-26T06:14:17.584Z,0
2022-08-26T06:16:19.137Z,0
2022-08-26T06:18:20.191Z,0.421
2022-08-26T06:20:21.261Z,1.123
2022-08-26T06:22:23.660Z,0.14
2022-08-26T06:24:26.910Z,0.28
2022-08-26T06:26:25.955Z,0.421
2022-08-26T06:28:27.492Z,0
2022-08-26T06:30:28.452Z,1.404
2022-08-26T06:32:29.526Z,0
2022-08-26T06:34:31.871Z,0
2022-08-26T06:36:32.655Z,0
2022-08-26T06:38:34.198Z,0.561
2022-08-26T06:40:35.329Z,0.842
2022-08-26T06:42:36.361Z,2.106
2022-08-26T06:44:38.044Z,1.544
2022-08-26T06:46:39.522Z,0.982
2022-08-26T06:48:41.098Z,2.246
2022-08-26T06:50:42.525Z,1.544
2022-08-26T06:52:43.634Z,0.421
2022-08-26T06:54:44.912Z,0.561
2022-08-26T06:56:46.388Z,1.544
2022-08-26T06:58:47.870Z,0
2022-08-26T07:00:49.389Z,1.825
2022-08-26T07:02:50.277Z,1.965
2022-08-26T07:04:51.318Z,0.561
2022-08-26T07:06:53.324Z,0.14
2022-08-26T07:08:54.262Z,0.842
2022-08-26T07:10:56.041Z,0.842
2022-08-26T07:12:57.418Z,1.404
2022-08-26T07:14:58.814Z,0.702
2022-08-26T07:17:00.181Z,0
2022-08-26T07:19:03.302Z,0.14
2022-08-26T07:21:02.753Z,0
2022-08-26T07:23:04.367Z,0.842
2022-08-26T07:25:05.534Z,0
2022-08-26T07:27:06.791Z,0
2022-08-26T07:29:07.658Z,0
2022-08-26T07:31:09.578Z,0.421
2022-08-26T07:33:10.707Z,0.14
2022-08-26T07:35:12.439Z,0.561
2022-08-26T07:37:13.586Z,2.948
2022-08-26T07:39:14.624Z,0.842
2022-08-26T07:41:16.360Z,0.842
2022-08-26T07:43:17.151Z,0.561
2022-08-26T07:45:18.848Z,0.421
2022-08-26T07:47:25.354Z,1.544
2022-08-26T07:49:21.631Z,0.982
2022-08-26T07:51:22.917Z,1.263
2022-08-26T07:53:24.306Z,1.965
2022-08-26T07:55:25.974Z,1.684
2022-08-26T07:57:27.116Z,2.246
2022-08-26T07:59:28.872Z,0.982
2022-08-26T08:01:29.892Z,0.28
2022-08-26T08:03:30.836Z,0
2022-08-26T08:05:33.628Z,1.263
2022-08-26T08:07:38.844Z,1.544
2022-08-26T08:09:34.724Z,0.28
2022-08-26T08:11:36.349Z,2.106
2022-08-26T08:13:37.952Z,0.28
2022-08-26T08:15:38.796Z,1.263
2022-08-26T08:17:40.129Z,3.79
2022-08-26T08:19:41.029Z,3.931
2022-08-26T08:21:42.590Z,1.263
2022-08-26T08:23:43.644Z,2.527
2022-08-26T08:25:45.141Z,0.982
2022-08-26T08:27:46.742Z,4.492
2022-08-26T08:29:48.226Z,0
2022-08-26T08:33:51.405Z,0.842
2022-08-26T08:35:52.839Z,0.842
2022-08-26T08:37:54.538Z,2.527
2022-08-26T08:39:55.323Z,3.51
2022-08-26T08:41:56.819Z,0.982
2022-08-26T08:43:58.186Z,3.369
2022-08-26T08:45:59.799Z,2.246
2022-08-26T08:48:00.476Z,3.79
2022-08-26T08:50:01.602Z,2.106
2022-08-26T08:52:02.796Z,2.527
2022-08-26T08:54:04.239Z,4.071
2022-08-26T08:56:05.125Z,3.369
2022-08-26T08:58:06.491Z,2.667
2022-08-26T09:00:08.063Z,1.263
2022-08-26T09:02:08.981Z,2.106
2022-08-26T09:04:09.813Z,4.492
2022-08-26T09:04:53.454Z,3.229
2022-08-26T09:06:54.789Z,2.106
2022-08-26T09:08:56.269Z,3.65
2022-08-26T09:10:57.862Z,3.088
2022-08-26T09:12:59.202Z,4.212
2022-08-26T09:15:00.521Z,2.106
2022-08-26T09:17:01.491Z,3.79
2022-08-26T09:19:03.138Z,4.773
2022-08-26T09:21:04.083Z,0.982
2022-08-26T09:23:04.997Z,2.246
2022-08-26T09:25:06.048Z,1.684
2022-08-26T09:27:07.469Z,5.054
2022-08-26T09:29:08.874Z,3.931
2022-08-26T09:31:11.413Z,2.667
2022-08-26T09:33:11.329Z,4.633
2022-08-26T09:35:12.021Z,4.633
2022-08-26T09:39:14.702Z,0.982
2022-08-26T09:41:15.933Z,1.825
2022-08-26T09:43:22.577Z,1.404
2022-08-26T09:45:17.888Z,1.123
2022-08-26T09:47:19.536Z,1.684
2022-08-26T09:49:20.544Z,0.561
2022-08-26T09:51:21.878Z,0
2022-08-26T09:53:25.284Z,1.825
2022-08-26T09:55:23.857Z,2.246
2022-08-26T09:57:24.916Z,0.842
2022-08-26T09:59:26.323Z,1.965
2022-08-26T10:01:27.176Z,3.088
2022-08-26T10:03:28.358Z,2.527
2022-08-26T10:05:29.833Z,5.194
2022-08-26T10:07:31.204Z,5.194
2022-08-26T10:09:32.343Z,2.808
2022-08-26T10:11:33.681Z,1.544
2022-08-26T10:13:34.654Z,0.982
2022-08-26T10:15:35.873Z,3.79
2022-08-26T10:17:37.403Z,0.842
2022-08-26T10:19:41.915Z,0
2022-08-26T10:21:40.044Z,0.982
2022-08-26T10:25:42.182Z,0
2022-08-26T10:27:49.664Z,0.842
2022-08-26T10:29:44.165Z,1.965
2022-08-26T10:31:45.386Z,0.982
2022-08-26T10:33:46.820Z,0.421
2022-08-26T10:35:48.194Z,0
2022-08-26T10:37:49.745Z,0
2022-08-26T10:39:51.876Z,0
2022-08-26T10:41:52.647Z,4.633
2022-08-26T10:43:54.246Z,5.194
2022-08-26T10:45:55.191Z,5.335
2022-08-26T10:47:56.675Z,10.108
2022-08-26T10:50:00.536Z,5.475
2022-08-26T10:51:59.251Z,6.458
2022-08-26T10:54:00.110Z,5.054
2022-08-26T10:56:01.239Z,4.773
2022-08-26T10:58:04.602Z,4.071
2022-08-26T11:02:05.322Z,2.386
2022-08-26T11:04:06.548Z,5.756
2022-08-26T11:06:07.886Z,7.862
2022-08-26T11:08:08.889Z,2.948
2022-08-26T11:10:10.036Z,6.318
2022-08-26T11:12:11.302Z,7.581
2022-08-26T11:14:12.800Z,5.475
2022-08-26T11:16:14.442Z,0
2022-08-26T11:18:15.428Z,0
2022-08-26T11:20:16.709Z,0.421
2022-08-26T11:22:17.998Z,5.335
2022-08-26T11:24:19.401Z,7.02
2022-08-26T11:26:30.059Z,5.335
2022-08-26T11:28:21.922Z,3.51
2022-08-26T11:30:24.067Z,7.16
2022-08-26T11:32:24.380Z,8.704
2022-08-26T11:34:25.926Z,2.386
2022-08-26T11:36:27.567Z,2.808
2022-08-26T11:38:28.502Z,6.037
2022-08-26T11:40:29.395Z,2.106
2022-08-26T11:42:31.002Z,3.088
2022-08-26T11:44:32.585Z,4.071
2022-08-26T11:46:33.891Z,5.896
2022-08-26T11:48:34.767Z,6.177
2022-08-26T11:50:35.625Z,2.808
2022-08-26T11:52:36.459Z,4.633
2022-08-26T11:54:37.978Z,4.071
2022-08-26T11:56:39.141Z,4.773
2022-08-26T11:58:40.867Z,2.386
2022-08-26T12:00:45.563Z,3.51
2022-08-26T12:02:44.238Z,3.229
2022-08-26T12:04:45.242Z,2.667
2022-08-26T12:06:46.952Z,7.441
2022-08-26T12:08:48.098Z,3.65
2022-08-26T12:10:49.142Z,6.318
2022-08-26T12:12:50.540Z,3.088
2022-08-26T12:14:51.700Z,3.65
2022-08-26T12:16:53.053Z,2.106
2022-08-26T12:18:54.033Z,0.842
2022-08-26T12:22:56.285Z,3.088
2022-08-26T12:24:57.917Z,4.352
2022-08-26T12:26:59.327Z,4.071
2022-08-26T12:29:00.932Z,7.722
2022-08-26T12:33:03.369Z,2.808
2022-08-26T12:37:05.091Z,1.684
2022-08-26T12:39:06.038Z,1.123
2022-08-26T12:41:07.034Z,4.914
2022-08-26T12:43:08.219Z,5.054
2022-08-26T12:45:09.353Z,4.212
2022-08-26T12:47:10.171Z,2.106
2022-08-26T12:49:11.588Z,4.633
2022-08-26T12:51:12.531Z,4.633
2022-08-26T12:53:13.849Z,4.071
2022-08-26T12:55:15.214Z,2.246
2022-08-26T12:57:16.745Z,4.492
2022-08-26T12:59:18.434Z,2.246
2022-08-26T13:01:19.617Z,3.229
2022-08-26T13:03:20.767Z,2.948
2022-08-26T13:05:21.836Z,3.79
2022-08-26T13:07:22.864Z,4.352
2022-08-26T13:09:24.590Z,4.492
2022-08-26T13:11:25.808Z,4.633
2022-08-26T13:13:27.323Z,5.475
2022-08-26T13:15:28.614Z,6.879
2022-08-26T13:17:29.909Z,7.722
2022-08-26T13:19:30.731Z,5.475
2022-08-26T13:21:37.372Z,2.246
2022-08-26T13:23:32.978Z,4.071
2022-08-26T13:25:34.241Z,7.02
2022-08-26T13:27:36.058Z,1.965
2022-08-26T13:29:37.053Z,1.684
2022-08-26T13:31:38.375Z,3.229
2022-08-26T13:33:40.050Z,5.756
2022-08-26T13:35:41.330Z,1.825
2022-08-26T13:37:42.256Z,1.684
2022-08-26T13:39:43.106Z,3.229
2022-08-26T13:41:43.834Z,0.982
2022-08-26T13:43:45.388Z,4.914
2022-08-26T13:45:46.706Z,3.65
2022-08-26T13:47:47.811Z,1.544
2022-08-26T13:49:49.280Z,4.071
2022-08-26T13:51:50.448Z,1.404
2022-08-26T13:53:51.478Z,4.633
2022-08-26T13:55:52.756Z,2.527
2022-08-26T13:57:54.017Z,3.931
2022-08-26T13:59:55.250Z,5.335
2022-08-26T14:03:58.547Z,3.088
2022-08-26T14:05:59.338Z,3.369
2022-08-26T14:08:00.926Z,1.263
2022-08-26T14:10:02.448Z,1.965
2022-08-26T14:12:03.721Z,0.982
2022-08-26T14:14:05.415Z,3.229
2022-08-26T14:16:07.033Z,4.773
2022-08-26T14:18:08.748Z,0.982
2022-08-26T14:20:09.503Z,0.561
2022-08-26T14:22:10.416Z,0.982
2022-08-26T14:24:11.273Z,3.088
2022-08-26T14:26:14.351Z,4.071
2022-08-26T14:28:14.531Z,0
2022-08-26T14:30:15.694Z,1.123
2022-08-26T14:32:17.010Z,1.404
2022-08-26T14:34:18.370Z,2.386
2022-08-26T14:36:19.297Z,0.842
2022-08-26T14:38:20.378Z,4.071
2022-08-26T14:40:21.248Z,0.842
2022-08-26T14:42:22.156Z,4.352
2022-08-26T14:44:23.513Z,0
2022-08-26T14:46:25.189Z,3.51
2022-08-26T14:48:26.325Z,2.527
2022-08-26T14:50:28.040Z,2.948
2022-08-26T14:52:29.434Z,3.088
2022-08-26T14:54:31.223Z,5.756
2022-08-26T14:56:32.325Z,1.965
2022-08-26T14:58:33.832Z,2.527
2022-08-26T15:00:35.336Z,3.088
2022-08-26T15:02:36.618Z,2.808
2022-08-26T15:04:37.618Z,2.246
2022-08-26T15:06:39.410Z,1.825
2022-08-26T15:08:40.224Z,1.544
2022-08-26T15:12:42.207Z,1.263
2022-08-26T15:14:43.322Z,0.561
2022-08-26T15:16:44.885Z,1.404
2022-08-26T15:18:46.161Z,0
2022-08-26T15:20:47.393Z,1.825
2022-08-26T15:22:48.555Z,2.386
2022-08-26T15:24:51.802Z,0.421
2022-08-26T15:26:51.325Z,0
2022-08-26T15:28:52.237Z,1.123
2022-08-26T15:30:53.721Z,1.123
2022-08-26T15:32:54.971Z,1.123
2022-08-26T15:34:56.496Z,3.65
2022-08-26T15:36:57.880Z,0.982
2022-08-26T15:38:59.645Z,2.667
2022-08-26T15:41:03.125Z,1.965
2022-08-26T15:45:04.307Z,1.965
2022-08-26T15:47:05.858Z,2.106
2022-08-26T15:49:06.918Z,1.825
2022-08-26T15:51:08.474Z,1.965
2022-08-26T15:51:52.185Z,1.825
2022-08-26T15:53:53.024Z,5.194
2022-08-26T15:55:54.045Z,1.825
2022-08-26T15:57:55.222Z,2.246
2022-08-26T15:59:56.574Z,2.527
2022-08-26T16:01:57.786Z,4.071
2022-08-26T16:03:59.123Z,5.194
2022-08-26T16:06:00.176Z,4.492
2022-08-26T16:08:01.606Z,3.65
2022-08-26T16:10:03.225Z,1.684
2022-08-26T16:12:04.064Z,1.544
2022-08-26T16:14:05.071Z,0.982
2022-08-26T16:16:06.083Z,0
2022-08-26T16:18:07.707Z,0.842
2022-08-26T16:20:09.414Z,1.684
2022-08-26T16:22:10.545Z,0.842
2022-08-26T16:24:11.381Z,2.106
2022-08-26T16:26:13.023Z,0.14
2022-08-26T16:28:13.865Z,0.28
2022-08-26T16:30:14.789Z,0
2022-08-26T16:32:15.903Z,0.14
2022-08-26T16:34:17.447Z,0.14
2022-08-26T16:36:18.345Z,0.14
2022-08-26T16:38:19.430Z,0
2022-08-26T16:40:20.590Z,0
2022-08-26T16:42:22.276Z,0
2022-08-26T16:44:23.911Z,0
2022-08-26T16:46:25.931Z,0
2022-08-26T16:48:26.518Z,0
2022-08-26T16:50:27.711Z,0
2022-08-26T16:52:31.354Z,0
2022-08-26T16:54:31.191Z,2.667
2022-08-26T16:56:33.872Z,1.123
2022-08-26T16:58:34.549Z,0
2022-08-26T17:00:35.570Z,0
2022-08-26T17:02:37.295Z,0
2022-08-26T17:04:38.946Z,0.561
2022-08-26T17:06:39.887Z,3.65
2022-08-26T17:08:40.931Z,1.825
2022-08-26T17:12:42.660Z,0.14
2022-08-26T17:14:44.021Z,0
2022-08-26T17:16:44.989Z,4.773
2022-08-26T17:20:47.176Z,5.335
2022-08-26T17:22:48.285Z,6.879
2022-08-26T17:24:49.508Z,5.616
2022-08-26T17:26:53.512Z,3.931
2022-08-26T17:30:54.277Z,8.704
2022-08-26T17:32:55.845Z,1.965
2022-08-26T17:34:57.461Z,3.65
2022-08-26T17:36:58.700Z,1.544
2022-08-26T17:39:00.424Z,2.386
2022-08-26T17:43:02.302Z,2.106
2022-08-26T17:45:03.600Z,0.702
2022-08-26T17:47:04.843Z,0.421
2022-08-26T17:49:06.469Z,1.123
2022-08-26T17:51:08.024Z,0
2022-08-26T17:53:12.654Z,0.28
2022-08-26T17:55:10.151Z,0
2022-08-26T17:57:11.903Z,0
2022-08-26T17:59:13.394Z,0.14
2022-08-26T18:01:14.482Z,0
2022-08-26T18:03:16.126Z,0.14
2022-08-26T18:05:17.972Z,2.808
2022-08-26T18:07:18.978Z,0.702
2022-08-26T18:11:21.465Z,1.965
2022-08-26T18:13:22.905Z,5.335
2022-08-26T18:15:24.035Z,8.283
2022-08-26T18:17:25.260Z,2.808
2022-08-26T18:19:26.945Z,1.965
2022-08-26T18:21:28.638Z,2.948
2022-08-26T18:23:31.355Z,1.965
2022-08-26T18:25:31.465Z,2.667
2022-08-26T18:27:32.773Z,4.352
2022-08-26T18:29:34.282Z,5.335
2022-08-26T18:31:35.762Z,0.982
2022-08-26T18:33:37.315Z,0.842
2022-08-26T18:35:38.807Z,0
2022-08-26T18:37:40.539Z,0
2022-08-26T18:39:41.808Z,3.229
2022-08-26T18:41:42.880Z,6.879
2022-08-26T18:43:44.156Z,5.475
2022-08-26T18:45:45.223Z,3.931
2022-08-26T18:47:46.383Z,3.088
2022-08-26T18:51:48.835Z,2.667
2022-08-26T18:53:50.051Z,1.965
2022-08-26T18:55:50.905Z,4.212
2022-08-26T18:57:52.615Z,4.492
2022-08-26T18:59:53.602Z,6.177
2022-08-26T19:01:54.886Z,5.335
2022-08-26T19:03:56.270Z,10.951
2022-08-26T19:05:58.043Z,9.126
2022-08-26T19:07:59.322Z,6.458
2022-08-26T19:10:00.851Z,3.931
2022-08-26T19:12:01.779Z,5.335
2022-08-26T19:14:02.688Z,7.722
2022-08-26T19:16:03.807Z,3.931
2022-08-26T19:18:05.188Z,3.229
2022-08-26T19:20:06.465Z,2.106
2022-08-26T19:22:07.913Z,2.106
2022-08-26T19:24:09.835Z,3.51
2022-08-26T19:26:10.645Z,4.071
2022-08-26T19:28:12.408Z,4.492
2022-08-26T19:30:13.908Z,6.598
2022-08-26T19:32:15.040Z,5.475
2022-08-26T19:34:16.053Z,5.335
2022-08-26T19:36:17.667Z,9.126
2022-08-26T19:38:18.658Z,2.106
2022-08-26T19:40:19.777Z,7.862
2022-08-26T19:44:23.150Z,3.65
2022-08-26T19:46:24.835Z,5.194
2022-08-26T19:48:26.019Z,3.088
2022-08-26T19:52:29.865Z,4.633
2022-08-26T19:54:30.620Z,2.106
2022-08-26T19:56:31.952Z,5.194
2022-08-26T19:58:33.612Z,1.263
2022-08-26T20:00:35.031Z,0
2022-08-26T20:02:36.899Z,4.773
2022-08-26T20:06:39.108Z,5.335
2022-08-26T20:08:40.920Z,5.616
2022-08-26T20:10:42.043Z,3.931
2022-08-26T20:12:43.809Z,0.702
2022-08-26T20:14:45.461Z,2.667
2022-08-26T20:16:47.120Z,4.212
2022-08-26T20:18:48.789Z,2.808
2022-08-26T20:20:57.788Z,4.633
2022-08-26T20:22:50.697Z,6.177
2022-08-26T20:24:51.600Z,4.212
2022-08-26T20:26:52.795Z,2.667
2022-08-26T20:28:54.182Z,2.527
2022-08-26T20:30:55.404Z,0
2022-08-26T20:32:57.133Z,0.14
2022-08-26T20:34:58.284Z,0
2022-08-26T20:36:59.332Z,1.684
2022-08-26T20:39:00.508Z,2.667
2022-08-26T20:41:01.957Z,1.965
2022-08-26T20:43:02.896Z,2.386
2022-08-26T20:45:04.233Z,1.404
2022-08-26T20:47:05.837Z,1.263
2022-08-26T20:49:07.449Z,0
2022-08-26T20:51:08.931Z,2.386
2022-08-26T20:53:10.570Z,1.544
2022-08-26T20:55:12.239Z,0
2022-08-26T20:57:13.161Z,1.544
2022-08-26T20:59:14.381Z,1.684
2022-08-26T21:01:15.850Z,0.14
2022-08-26T21:03:17.562Z,1.404
2022-08-26T21:05:18.597Z,0.28
2022-08-26T21:07:19.492Z,1.965
2022-08-26T21:09:21.232Z,2.948
2022-08-26T21:11:23.034Z,0
2022-08-26T21:13:24.892Z,0.28
2022-08-26T21:15:25.817Z,0
2022-08-26T21:17:27.628Z,0.842
2022-08-26T21:19:29.093Z,2.808
2022-08-26T21:21:30.628Z,2.106
2022-08-26T21:23:31.667Z,3.931
2022-08-26T21:25:33.343Z,3.088
2022-08-26T21:27:35.210Z,2.106
2022-08-26T21:29:36.964Z,2.527
2022-08-26T21:31:41.129Z,1.684
2022-08-26T21:33:39.676Z,4.492
2022-08-26T21:35:40.813Z,0.14
2022-08-26T21:37:42.402Z,0
2022-08-26T21:39:43.797Z,0
2022-08-26T21:41:45.174Z,0
2022-08-26T21:43:46.946Z,0
2022-08-26T21:45:48.188Z,0
2022-08-26T21:47:49.434Z,0
2022-08-26T21:49:50.425Z,1.263
2022-08-26T21:51:52.046Z,0.702
2022-08-26T21:53:53.804Z,2.386
2022-08-26T21:55:55.198Z,2.667
2022-08-26T21:57:56.250Z,3.088
2022-08-26T21:59:57.704Z,0.982
2022-08-26T22:01:59.515Z,0
2022-08-26T22:04:01.137Z,1.123
2022-08-26T22:06:02.189Z,1.123
2022-08-26T22:08:03.681Z,1.123
2022-08-26T22:10:04.657Z,0.28
2022-08-26T22:12:06.455Z,0
2022-08-26T22:14:08.086Z,0
2022-08-26T22:18:11.293Z,0.842
2022-08-26T22:20:16.423Z,0.14
2022-08-26T22:22:13.308Z,0.14
2022-08-26T22:24:14.845Z,0.421
2022-08-26T22:26:20.666Z,0
2022-08-26T22:28:18.260Z,0
2022-08-26T22:30:19.195Z,0
2022-08-26T22:32:20.238Z,0
2022-08-26T22:34:21.256Z,0
2022-08-26T22:36:22.198Z,0
2022-08-26T22:37:05.893Z,0
2022-08-26T22:39:07.572Z,0
2022-08-26T22:41:09.199Z,0
2022-08-26T22:45:11.954Z,0
2022-08-26T22:47:12.869Z,0
2022-08-26T22:49:13.913Z,0
2022-08-26T22:51:14.866Z,0.702
2022-08-26T22:55:17.501Z,0
2022-08-26T22:57:18.987Z,0
2022-08-26T22:59:20.765Z,0
2022-08-26T23:01:22.234Z,0
2022-08-26T23:03:23.357Z,0.702
2022-08-26T23:05:25.231Z,0
2022-08-26T23:07:26.292Z,0
2022-08-26T23:09:27.761Z,0
2022-08-26T23:11:28.663Z,0.14
2022-08-26T23:13:30.236Z,0.421
2022-08-26T23:15:31.433Z,0.14
2022-08-26T23:17:32.800Z,0.561
2022-08-26T23:19:34.575Z,0
2022-08-26T23:21:36.259Z,1.404
2022-08-26T23:23:37.259Z,1.263
2022-08-26T23:25:38.714Z,2.808
2022-08-26T23:27:40.363Z,1.965
2022-08-26T23:29:42.056Z,2.106
2022-08-26T23:31:43.881Z,2.386
2022-08-26T23:33:45.625Z,0.14
2022-08-26T23:35:46.520Z,0.702
2022-08-26T23:37:47.497Z,0.561
2022-08-26T23:39:48.726Z,0
2022-08-26T23:41:49.681Z,0
2022-08-26T23:43:51.038Z,0
2022-08-26T23:45:52.152Z,0.421
2022-08-26T23:47:53.118Z,0
2022-08-26T23:49:54.446Z,0.14
2022-08-26T23:51:55.750Z,0
2022-08-26T23:53:57.335Z,0.561
2022-08-26T23:55:58.690Z,0
2022-08-26T23:57:59.655Z,0
